createdAt,value
2022-11-16T00:00:41.841Z,43.00
2022-11-16T00:06:04.350Z,40.72
2022-11-16T00:11:24.862Z,40.67
2022-11-16T00:16:45.672Z,42.42
2022-11-16T00:22:06.078Z,39.58
2022-11-16T00:27:26.991Z,44.30
2022-11-16T00:32:47.610Z,42.40
2022-11-16T00:38:08.429Z,35.05
2022-11-16T00:43:29.253Z,39.67
2022-11-16T00:48:49.867Z,39.35
2022-11-16T00:54:10.186Z,42.70
2022-11-16T00:59:30.905Z,47.65
2022-11-16T01:04:52.891Z,39.10
2022-11-16T01:10:17.018Z,45.42
2022-11-16T01:15:37.814Z,44.63
2022-11-16T01:20:58.399Z,44.38
2022-11-16T01:26:18.968Z,46.38
2022-11-16T01:31:40.312Z,49.17
2022-11-16T01:37:01.032Z,46.30
2022-11-16T01:42:27.965Z,49.90
2022-11-16T01:47:53.965Z,37.78
2022-11-16T01:53:19.304Z,40.15
2022-11-16T01:58:45.562Z,43.20
2022-11-16T02:04:14.830Z,41.15
2022-11-16T02:10:04.816Z,41.85
2022-11-16T02:15:38.579Z,50.92
2022-11-16T02:21:44.981Z,42.88
2022-11-16T02:27:29.841Z,39.83
2022-11-16T02:32:56.327Z,47.20
2022-11-16T02:38:25.783Z,38.28
2022-11-16T02:43:52.533Z,35.55
2022-11-16T02:49:19.788Z,40.35
2022-11-16T02:54:40.478Z,40.05
2022-11-16T03:00:02.638Z,41.45
2022-11-16T03:05:38.971Z,40.53
2022-11-16T03:11:26.475Z,35.60
2022-11-16T03:16:55.622Z,33.97
2022-11-16T03:22:45.127Z,43.97
2022-11-16T03:28:29.436Z,39.40
2022-11-16T03:33:58.222Z,30.52
2022-11-16T03:44:49.260Z,32.75
2022-11-16T03:50:10.149Z,27.73
2022-11-16T04:01:00.335Z,32.28
2022-11-16T04:06:41.481Z,26.52
2022-11-16T04:12:21.043Z,27.92
2022-11-16T04:18:01.432Z,30.60
2022-11-16T04:23:42.600Z,23.73
2022-11-16T04:29:03.137Z,26.98
2022-11-16T04:34:42.999Z,26.10
2022-11-16T04:40:05.166Z,23.27
2022-11-16T04:45:45.957Z,15.43
2022-11-16T04:51:07.831Z,17.30
2022-11-16T04:56:29.143Z,21.02
2022-11-16T05:02:08.483Z,23.42
2022-11-16T05:07:35.805Z,27.70
2022-11-16T05:13:03.286Z,21.88
2022-11-16T05:18:24.100Z,25.75
2022-11-16T05:24:03.695Z,31.85
2022-11-16T05:29:25.524Z,27.13
2022-11-16T05:34:46.510Z,27.38
2022-11-16T05:40:09.636Z,20.60
2022-11-16T05:45:36.897Z,19.63
2022-11-16T05:50:59.545Z,22.20
2022-11-16T05:56:22.422Z,29.23
2022-11-16T06:01:43.832Z,19.42
2022-11-16T06:07:04.867Z,31.52
2022-11-16T06:17:50.527Z,20.45
2022-11-16T06:23:11.292Z,24.00
2022-11-16T06:28:33.166Z,28.42
2022-11-16T06:33:54.070Z,24.52
2022-11-16T06:39:19.175Z,28.58
2022-11-16T06:44:40.272Z,30.45
2022-11-16T06:50:03.953Z,26.70
2022-11-16T06:55:24.865Z,30.70
2022-11-16T07:00:46.178Z,26.58
2022-11-16T07:06:10.634Z,32.13
2022-11-16T07:11:34.710Z,32.97
2022-11-16T07:16:59.802Z,35.75
2022-11-16T07:22:22.079Z,28.83
2022-11-16T07:27:44.609Z,50.13
2022-11-16T07:33:05.558Z,32.65
2022-11-16T07:38:48.894Z,34.63
2022-11-16T07:44:12.247Z,37.45
2022-11-16T07:49:35.807Z,32.35
2022-11-16T07:55:09.424Z,35.08
2022-11-16T08:00:29.822Z,30.08
2022-11-16T08:06:03.769Z,32.08
2022-11-16T08:11:24.803Z,36.38
2022-11-16T08:16:47.175Z,34.83
2022-11-16T08:22:09.065Z,33.38
2022-11-16T08:27:32.149Z,32.47
2022-11-16T08:32:53.282Z,31.65
2022-11-16T08:38:14.719Z,39.05
2022-11-16T08:43:35.916Z,43.15
2022-11-16T08:48:57.860Z,49.80
2022-11-16T08:54:18.920Z,32.30
2022-11-16T08:59:39.846Z,30.70
2022-11-16T09:05:05.756Z,32.67
2022-11-16T09:10:26.578Z,35.88
2022-11-16T09:15:47.187Z,30.42
2022-11-16T09:21:08.246Z,28.67
2022-11-16T09:26:29.842Z,28.63
2022-11-16T09:31:50.238Z,30.45
2022-11-16T09:37:11.135Z,26.38
2022-11-16T09:42:52.220Z,26.15
2022-11-16T09:48:14.675Z,24.40
2022-11-16T09:53:38.356Z,28.75
2022-11-16T09:59:15.031Z,25.50
2022-11-16T10:04:56.727Z,29.20
2022-11-16T10:10:34.818Z,24.20
2022-11-16T10:15:58.275Z,29.67
2022-11-16T10:21:27.963Z,26.10
2022-11-16T10:27:19.161Z,26.75
2022-11-16T10:33:02.145Z,32.42
2022-11-16T10:38:33.424Z,21.65
2022-11-16T10:43:57.855Z,20.77
2022-11-16T10:54:47.732Z,28.23
2022-11-16T11:00:12.893Z,17.90
2022-11-16T11:05:36.205Z,22.25
2022-11-16T11:11:24.400Z,20.95
2022-11-16T11:16:45.117Z,18.67
2022-11-16T11:22:05.645Z,18.52
2022-11-16T11:27:33.730Z,24.85
2022-11-16T11:32:54.530Z,24.98
2022-11-16T11:38:16.096Z,20.05
2022-11-16T11:43:37.532Z,19.20
2022-11-16T11:49:08.746Z,26.08
2022-11-16T11:54:34.731Z,29.85
2022-11-16T11:59:55.636Z,25.17
2022-11-16T12:05:44.391Z,27.15
2022-11-16T12:11:36.737Z,22.95
2022-11-16T12:17:07.134Z,21.23
2022-11-16T12:22:51.792Z,23.02
2022-11-16T12:28:31.180Z,21.13
2022-11-16T12:34:07.444Z,19.00
2022-11-16T12:39:35.066Z,21.08
2022-11-16T12:45:18.433Z,18.50
2022-11-16T12:51:04.147Z,25.08
2022-11-16T12:56:33.465Z,24.70
2022-11-16T13:02:03.363Z,25.73
2022-11-16T13:07:43.829Z,22.45
2022-11-16T13:18:54.603Z,20.85
2022-11-16T13:24:29.667Z,19.50
2022-11-16T13:35:18.402Z,20.65
2022-11-16T13:40:40.828Z,19.13
2022-11-16T13:46:01.251Z,15.05
2022-11-16T13:51:23.103Z,15.73
2022-11-16T13:56:48.929Z,13.00
2022-11-16T14:02:31.608Z,18.33
2022-11-16T14:07:52.289Z,13.73
2022-11-16T14:13:36.719Z,16.55
2022-11-16T14:19:02.850Z,13.82
2022-11-16T14:24:33.857Z,18.63
2022-11-16T14:30:16.054Z,11.40
2022-11-16T14:35:39.804Z,11.55
2022-11-16T14:41:03.402Z,11.50
2022-11-16T14:46:29.687Z,11.45
2022-11-16T14:51:55.042Z,18.58
2022-11-16T14:57:20.923Z,10.88
2022-11-16T15:02:43.451Z,10.25
2022-11-16T15:08:17.003Z,8.00
2022-11-16T15:13:38.000Z,8.77
2022-11-16T15:19:00.706Z,11.18
2022-11-16T15:24:30.355Z,7.32
2022-11-16T15:29:52.080Z,7.90
2022-11-16T15:35:19.049Z,4.68
2022-11-16T15:40:40.486Z,6.97
2022-11-16T15:46:02.180Z,4.95
2022-11-16T15:51:23.299Z,7.65
2022-11-16T15:56:43.836Z,7.60
2022-11-16T16:02:05.000Z,9.77
2022-11-16T16:07:45.092Z,5.95
2022-11-16T16:13:25.530Z,8.73
2022-11-16T16:18:46.197Z,8.90
2022-11-16T16:24:09.415Z,9.50
2022-11-16T16:29:29.754Z,14.52
2022-11-16T16:34:51.028Z,10.23
2022-11-16T16:40:11.503Z,4.57
2022-11-16T16:45:38.810Z,7.03
2022-11-16T16:50:59.487Z,3.25
2022-11-16T16:56:19.983Z,9.80
2022-11-16T17:01:41.073Z,7.03
2022-11-16T17:07:01.899Z,8.48
2022-11-16T17:12:22.505Z,9.90
2022-11-16T17:17:43.277Z,11.80
2022-11-16T17:23:04.175Z,12.27
2022-11-16T17:28:24.792Z,8.07
2022-11-16T17:33:45.356Z,8.25
2022-11-16T17:39:06.382Z,10.35
2022-11-16T17:44:27.116Z,9.98
2022-11-16T17:49:47.817Z,9.23
2022-11-16T17:55:08.688Z,6.55
2022-11-16T18:00:29.051Z,10.45
2022-11-16T18:05:50.749Z,12.50
2022-11-16T18:11:20.713Z,10.00
2022-11-16T18:16:43.352Z,9.23
2022-11-16T18:22:04.290Z,17.08
2022-11-16T18:27:24.934Z,10.10
2022-11-16T18:32:45.869Z,12.93
2022-11-16T18:38:08.135Z,12.52
2022-11-16T18:43:29.426Z,16.60
2022-11-16T18:48:50.586Z,10.13
2022-11-16T18:54:11.646Z,18.23
2022-11-16T18:59:32.295Z,7.28
2022-11-16T19:04:53.396Z,11.75
2022-11-16T19:10:14.697Z,11.43
2022-11-16T19:15:35.984Z,10.48
2022-11-16T19:21:11.523Z,14.82
2022-11-16T19:26:32.855Z,13.82
2022-11-16T19:37:42.900Z,10.98
2022-11-16T19:43:03.523Z,11.75
2022-11-16T19:48:24.231Z,17.60
2022-11-16T19:53:44.972Z,11.07
2022-11-16T19:59:05.694Z,8.90
2022-11-16T20:04:29.152Z,10.38
2022-11-16T20:09:53.326Z,7.53
2022-11-16T20:15:13.971Z,13.18
2022-11-16T20:20:34.638Z,9.57
2022-11-16T20:25:55.207Z,10.60
2022-11-16T20:31:17.810Z,4.35
2022-11-16T20:36:38.665Z,11.38
2022-11-16T20:41:59.493Z,6.47
2022-11-16T20:47:19.897Z,4.93
2022-11-16T20:52:43.174Z,10.27
2022-11-16T20:58:06.677Z,6.70
2022-11-16T21:03:28.079Z,9.30
2022-11-16T21:08:48.634Z,8.32
2022-11-16T21:14:18.756Z,10.43
2022-11-16T21:19:39.350Z,5.68
2022-11-16T21:25:00.711Z,6.78
2022-11-16T21:30:21.128Z,3.38
2022-11-16T21:35:41.563Z,4.05
2022-11-16T21:41:02.375Z,4.38
2022-11-16T21:46:25.095Z,8.23
2022-11-16T21:51:45.656Z,14.45
2022-11-16T21:57:06.304Z,5.45
2022-11-16T22:02:27.031Z,5.45
2022-11-16T22:07:47.666Z,5.25
2022-11-16T22:13:08.482Z,4.70
2022-11-16T22:18:32.794Z,3.45
2022-11-16T22:23:53.399Z,3.20
2022-11-16T22:29:13.702Z,6.03
2022-11-16T22:34:34.282Z,1.75
2022-11-16T22:39:55.128Z,5.70
2022-11-16T22:45:15.836Z,2.90
2022-11-16T22:50:36.441Z,1.92
2022-11-16T22:56:03.482Z,3.65
2022-11-16T23:01:24.440Z,5.57
2022-11-16T23:06:45.249Z,3.90
2022-11-16T23:12:27.908Z,3.03
2022-11-16T23:17:48.422Z,5.82
2022-11-16T23:23:36.268Z,4.70
2022-11-16T23:29:08.903Z,3.10
2022-11-16T23:34:29.558Z,8.18
2022-11-16T23:39:50.075Z,1.90
2022-11-16T23:45:10.879Z,8.43
2022-11-16T23:50:31.624Z,2.97
2022-11-16T23:55:51.889Z,5.32
